Terminal Aerodrome Forecast
Issued by NWS

Home | Current Version | Previous Version | Text Only | Print | Product List | Glossary On
Versions: 1 2 3 4 5 6 7 8 9 10 11 12 13 14 15 16 17
000
FTUS43 KIND 181130
TAFHUF
TAF
KHUF 181130Z 1812/1912 20016G26KT P6SM SHRA VCTS OVC015CB
     FM181300 20017G27KT P6SM SHRA VCTS OVC008CB
     FM181800 23019G31KT 4SM SHRA VCTS OVC010CB
     FM181900 26019G33KT 4SM SHRA VCTS OVC015CB
     FM182100 33020G35KT P6SM SHRA OVC010
     FM190000 32019G32KT 5SM -SHRA OVC015
     FM190100 32018G32KT P6SM VCSH OVC015
     FM190300 31015G31KT P6SM BKN020=

USA.gov is the U.S. government's official web portal to all federal, state and local government web resources and services.